sensor_id;sensor_type;location;lat;lon;timestamp;temperature;humidity
21193;DHT22;10754;51.106;7.164;2023-02-20T00:01:52;9.60;1.00
21193;DHT22;10754;51.106;7.164;2023-02-20T00:04:18;9.60;1.00
21193;DHT22;10754;51.106;7.164;2023-02-20T00:06:44;9.70;1.00
21193;DHT22;10754;51.106;7.164;2023-02-20T00:09:09;9.70;1.00
21193;DHT22;10754;51.106;7.164;2023-02-20T00:11:35;9.70;1.00
21193;DHT22;10754;51.106;7.164;2023-02-20T00:14:02;9.70;1.00
21193;DHT22;10754;51.106;7.164;2023-02-20T00:16:27;9.60;1.00
21193;DHT22;10754;51.106;7.164;2023-02-20T00:18:53;9.60;1.00
21193;DHT22;10754;51.106;7.164;2023-02-20T00:21:18;9.60;1.00
21193;DHT22;10754;51.106;7.164;2023-02-20T00:23:44;9.60;1.00
21193;DHT22;10754;51.106;7.164;2023-02-20T00:26:11;9.60;1.00
21193;DHT22;10754;51.106;7.164;2023-02-20T00:28:38;9.60;1.00
21193;DHT22;10754;51.106;7.164;2023-02-20T00:31:08;9.60;1.00
21193;DHT22;10754;51.106;7.164;2023-02-20T00:33:36;9.50;1.00
21193;DHT22;10754;51.106;7.164;2023-02-20T00:36:02;9.50;1.00
21193;DHT22;10754;51.106;7.164;2023-02-20T00:38:28;9.50;1.00
21193;DHT22;10754;51.106;7.164;2023-02-20T00:40:53;9.40;1.00
21193;DHT22;10754;51.106;7.164;2023-02-20T00:43:19;9.40;1.00
21193;DHT22;10754;51.106;7.164;2023-02-20T00:45:44;9.40;1.00
21193;DHT22;10754;51.106;7.164;2023-02-20T00:48:10;9.40;1.00
21193;DHT22;10754;51.106;7.164;2023-02-20T00:50:35;9.40;1.00
21193;DHT22;10754;51.106;7.164;2023-02-20T00:53:01;9.30;1.00
21193;DHT22;10754;51.106;7.164;2023-02-20T00:55:27;9.30;1.00
21193;DHT22;10754;51.106;7.164;2023-02-20T00:57:53;9.20;1.00
21193;DHT22;10754;51.106;7.164;2023-02-20T01:00:25;9.20;1.00
21193;DHT22;10754;51.106;7.164;2023-02-20T01:02:51;9.30;1.00
21193;DHT22;10754;51.106;7.164;2023-02-20T01:05:17;9.30;1.00
21193;DHT22;10754;51.106;7.164;2023-02-20T01:07:43;9.30;1.00
21193;DHT22;10754;51.106;7.164;2023-02-20T01:10:09;9.20;1.00
21193;DHT22;10754;51.106;7.164;2023-02-20T01:12:35;9.30;1.00
21193;DHT22;10754;51.106;7.164;2023-02-20T01:15:01;9.30;1.00
21193;DHT22;10754;51.106;7.164;2023-02-20T01:17:26;9.20;1.00
21193;DHT22;10754;51.106;7.164;2023-02-20T01:19:52;9.30;1.00
21193;DHT22;10754;51.106;7.164;2023-02-20T01:22:17;9.30;1.00
21193;DHT22;10754;51.106;7.164;2023-02-20T01:24:43;9.30;1.00
21193;DHT22;10754;51.106;7.164;2023-02-20T01:27:09;9.30;1.00
21193;DHT22;10754;51.106;7.164;2023-02-20T01:29:34;9.30;1.00
21193;DHT22;10754;51.106;7.164;2023-02-20T01:32:00;9.40;1.00
21193;DHT22;10754;51.106;7.164;2023-02-20T01:34:26;9.40;1.00
21193;DHT22;10754;51.106;7.164;2023-02-20T01:36:53;9.40;1.00
21193;DHT22;10754;51.106;7.164;2023-02-20T01:39:20;9.40;1.00
21193;DHT22;10754;51.106;7.164;2023-02-20T01:41:49;9.40;1.00
21193;DHT22;10754;51.106;7.164;2023-02-20T01:44:21;9.40;1.00
21193;DHT22;10754;51.106;7.164;2023-02-20T01:46:50;9.40;1.00
21193;DHT22;10754;51.106;7.164;2023-02-20T01:49:22;9.50;1.00
21193;DHT22;10754;51.106;7.164;2023-02-20T01:51:56;9.50;1.00
21193;DHT22;10754;51.106;7.164;2023-02-20T01:54:25;9.50;1.00
21193;DHT22;10754;51.106;7.164;2023-02-20T01:56:52;9.50;1.00
21193;DHT22;10754;51.106;7.164;2023-02-20T01:59:20;9.50;1.00
21193;DHT22;10754;51.106;7.164;2023-02-20T02:01:47;9.50;1.00
21193;DHT22;10754;51.106;7.164;2023-02-20T02:04:13;9.40;1.00
21193;DHT22;10754;51.106;7.164;2023-02-20T02:06:41;9.40;1.00
21193;DHT22;10754;51.106;7.164;2023-02-20T02:09:15;9.40;1.00
21193;DHT22;10754;51.106;7.164;2023-02-20T02:11:43;9.50;1.00
21193;DHT22;10754;51.106;7.164;2023-02-20T02:14:09;9.60;1.00
21193;DHT22;10754;51.106;7.164;2023-02-20T02:16:52;9.50;1.00
21193;DHT22;10754;51.106;7.164;2023-02-20T02:25:29;9.70;1.00
21193;DHT22;10754;51.106;7.164;2023-02-20T02:30:46;9.70;1.00
21193;DHT22;10754;51.106;7.164;2023-02-20T02:38:46;9.60;1.00
21193;DHT22;10754;51.106;7.164;2023-02-20T02:41:43;9.80;1.00
21193;DHT22;10754;51.106;7.164;2023-02-20T02:44:53;9.80;1.00
21193;DHT22;10754;51.106;7.164;2023-02-20T02:47:45;9.80;1.00
21193;DHT22;10754;51.106;7.164;2023-02-20T02:50:31;9.70;1.00
21193;DHT22;10754;51.106;7.164;2023-02-20T02:52:59;9.90;1.00
21193;DHT22;10754;51.106;7.164;2023-02-20T02:55:28;9.90;1.00
21193;DHT22;10754;51.106;7.164;2023-02-20T02:57:54;9.80;1.00
21193;DHT22;10754;51.106;7.164;2023-02-20T03:00:25;9.90;1.00
21193;DHT22;10754;51.106;7.164;2023-02-20T03:05:22;9.70;1.00
21193;DHT22;10754;51.106;7.164;2023-02-20T03:07:52;9.60;1.00
21193;DHT22;10754;51.106;7.164;2023-02-20T03:10:21;9.50;1.00
21193;DHT22;10754;51.106;7.164;2023-02-20T03:13:00;9.50;1.00
21193;DHT22;10754;51.106;7.164;2023-02-20T03:15:32;9.50;1.00
21193;DHT22;10754;51.106;7.164;2023-02-20T03:18:13;9.50;1.00
21193;DHT22;10754;51.106;7.164;2023-02-20T03:20:45;9.70;1.00
21193;DHT22;10754;51.106;7.164;2023-02-20T03:23:19;9.50;1.00
21193;DHT22;10754;51.106;7.164;2023-02-20T03:25:52;9.40;1.00
21193;DHT22;10754;51.106;7.164;2023-02-20T03:28:23;9.50;1.00
21193;DHT22;10754;51.106;7.164;2023-02-20T03:31:07;9.40;1.00
21193;DHT22;10754;51.106;7.164;2023-02-20T03:33:37;9.40;1.00
21193;DHT22;10754;51.106;7.164;2023-02-20T03:36:33;9.30;1.00
21193;DHT22;10754;51.106;7.164;2023-02-20T03:39:22;9.20;1.00
21193;DHT22;10754;51.106;7.164;2023-02-20T03:42:09;9.20;1.00
21193;DHT22;10754;51.106;7.164;2023-02-20T03:44:55;9.30;1.00
21193;DHT22;10754;51.106;7.164;2023-02-20T03:47:23;9.20;1.00
21193;DHT22;10754;51.106;7.164;2023-02-20T03:49:51;9.20;1.00
21193;DHT22;10754;51.106;7.164;2023-02-20T03:52:19;9.20;1.00
21193;DHT22;10754;51.106;7.164;2023-02-20T03:54:45;9.10;1.00
21193;DHT22;10754;51.106;7.164;2023-02-20T03:57:17;9.10;1.00
21193;DHT22;10754;51.106;7.164;2023-02-20T03:59:51;9.10;1.00
21193;DHT22;10754;51.106;7.164;2023-02-20T04:02:26;9.10;1.00
21193;DHT22;10754;51.106;7.164;2023-02-20T04:04:56;9.10;1.00
21193;DHT22;10754;51.106;7.164;2023-02-20T04:07:28;9.10;1.00
21193;DHT22;10754;51.106;7.164;2023-02-20T04:09:57;9.20;1.00
21193;DHT22;10754;51.106;7.164;2023-02-20T04:12:31;8.90;1.00
21193;DHT22;10754;51.106;7.164;2023-02-20T04:14:59;9.00;1.00
21193;DHT22;10754;51.106;7.164;2023-02-20T04:17:30;9.00;1.00
21193;DHT22;10754;51.106;7.164;2023-02-20T04:19:56;9.00;1.00
21193;DHT22;10754;51.106;7.164;2023-02-20T04:22:26;9.00;1.00
21193;DHT22;10754;51.106;7.164;2023-02-20T04:25:15;9.10;1.00
21193;DHT22;10754;51.106;7.164;2023-02-20T04:27:42;8.80;1.00
21193;DHT22;10754;51.106;7.164;2023-02-20T04:30:08;8.80;1.00
21193;DHT22;10754;51.106;7.164;2023-02-20T04:32:34;9.00;1.00
21193;DHT22;10754;51.106;7.164;2023-02-20T04:35:00;8.90;1.00
21193;DHT22;10754;51.106;7.164;2023-02-20T04:37:25;9.00;1.00
21193;DHT22;10754;51.106;7.164;2023-02-20T04:39:51;8.90;1.00
21193;DHT22;10754;51.106;7.164;2023-02-20T04:42:16;8.90;1.00
21193;DHT22;10754;51.106;7.164;2023-02-20T04:44:42;8.90;1.00
21193;DHT22;10754;51.106;7.164;2023-02-20T04:47:13;9.00;1.00
21193;DHT22;10754;51.106;7.164;2023-02-20T04:49:39;8.90;1.00
21193;DHT22;10754;51.106;7.164;2023-02-20T04:52:04;8.80;1.00
21193;DHT22;10754;51.106;7.164;2023-02-20T04:54:31;8.90;1.00
21193;DHT22;10754;51.106;7.164;2023-02-20T04:56:56;8.90;1.00
21193;DHT22;10754;51.106;7.164;2023-02-20T04:59:22;9.00;1.00
21193;DHT22;10754;51.106;7.164;2023-02-20T05:01:48;8.90;1.00
21193;DHT22;10754;51.106;7.164;2023-02-20T05:04:19;8.90;1.00
21193;DHT22;10754;51.106;7.164;2023-02-20T05:06:51;8.90;1.00
21193;DHT22;10754;51.106;7.164;2023-02-20T05:09:18;8.90;1.00
21193;DHT22;10754;51.106;7.164;2023-02-20T05:11:43;8.90;1.00
21193;DHT22;10754;51.106;7.164;2023-02-20T05:14:09;8.80;1.00
21193;DHT22;10754;51.106;7.164;2023-02-20T05:16:39;8.80;1.00
21193;DHT22;10754;51.106;7.164;2023-02-20T05:19:06;8.90;1.00
21193;DHT22;10754;51.106;7.164;2023-02-20T05:21:32;8.90;1.00
21193;DHT22;10754;51.106;7.164;2023-02-20T05:24:15;8.80;1.00
21193;DHT22;10754;51.106;7.164;2023-02-20T05:26:41;8.80;1.00
21193;DHT22;10754;51.106;7.164;2023-02-20T05:29:07;8.80;1.00
21193;DHT22;10754;51.106;7.164;2023-02-20T05:31:34;8.80;1.00
21193;DHT22;10754;51.106;7.164;2023-02-20T05:34:00;8.90;1.00
21193;DHT22;10754;51.106;7.164;2023-02-20T05:36:25;9.00;1.00
21193;DHT22;10754;51.106;7.164;2023-02-20T05:38:51;9.10;1.00
21193;DHT22;10754;51.106;7.164;2023-02-20T05:41:17;9.00;1.00
21193;DHT22;10754;51.106;7.164;2023-02-20T05:43:43;8.90;1.00
21193;DHT22;10754;51.106;7.164;2023-02-20T05:46:09;8.90;1.00
21193;DHT22;10754;51.106;7.164;2023-02-20T05:48:34;9.00;1.00
21193;DHT22;10754;51.106;7.164;2023-02-20T05:51:00;8.90;1.00
21193;DHT22;10754;51.106;7.164;2023-02-20T05:53:30;8.90;1.00
21193;DHT22;10754;51.106;7.164;2023-02-20T05:55:55;8.90;1.00
21193;DHT22;10754;51.106;7.164;2023-02-20T05:58:21;8.80;1.00
21193;DHT22;10754;51.106;7.164;2023-02-20T06:00:47;8.90;1.00
21193;DHT22;10754;51.106;7.164;2023-02-20T06:03:14;8.80;1.00
21193;DHT22;10754;51.106;7.164;2023-02-20T06:05:39;8.80;1.00
21193;DHT22;10754;51.106;7.164;2023-02-20T06:08:05;8.80;1.00
21193;DHT22;10754;51.106;7.164;2023-02-20T06:10:31;8.80;1.00
21193;DHT22;10754;51.106;7.164;2023-02-20T06:12:56;8.80;1.00
21193;DHT22;10754;51.106;7.164;2023-02-20T06:15:22;8.90;1.00
21193;DHT22;10754;51.106;7.164;2023-02-20T06:17:47;8.80;1.00
21193;DHT22;10754;51.106;7.164;2023-02-20T06:20:13;8.80;1.00
21193;DHT22;10754;51.106;7.164;2023-02-20T06:22:39;8.70;1.00
21193;DHT22;10754;51.106;7.164;2023-02-20T06:25:05;8.70;1.00
21193;DHT22;10754;51.106;7.164;2023-02-20T06:27:30;8.70;1.00
21193;DHT22;10754;51.106;7.164;2023-02-20T06:29:56;8.80;1.00
21193;DHT22;10754;51.106;7.164;2023-02-20T06:32:22;8.80;1.00
21193;DHT22;10754;51.106;7.164;2023-02-20T06:34:47;8.80;1.00
21193;DHT22;10754;51.106;7.164;2023-02-20T06:37:13;8.70;1.00
21193;DHT22;10754;51.106;7.164;2023-02-20T06:39:39;8.80;1.00
21193;DHT22;10754;51.106;7.164;2023-02-20T06:42:07;8.80;1.00
21193;DHT22;10754;51.106;7.164;2023-02-20T06:44:33;8.70;1.00
21193;DHT22;10754;51.106;7.164;2023-02-20T06:46:59;8.70;1.00
21193;DHT22;10754;51.106;7.164;2023-02-20T06:49:25;8.60;1.00
21193;DHT22;10754;51.106;7.164;2023-02-20T06:51:53;8.60;1.00
21193;DHT22;10754;51.106;7.164;2023-02-20T06:54:19;8.60;1.00
21193;DHT22;10754;51.106;7.164;2023-02-20T06:56:46;8.50;1.00
21193;DHT22;10754;51.106;7.164;2023-02-20T06:59:13;8.50;1.00
21193;DHT22;10754;51.106;7.164;2023-02-20T07:01:40;8.60;1.00
21193;DHT22;10754;51.106;7.164;2023-02-20T07:04:16;8.70;1.00
21193;DHT22;10754;51.106;7.164;2023-02-20T07:06:42;8.70;1.00
21193;DHT22;10754;51.106;7.164;2023-02-20T07:09:08;8.70;1.00
21193;DHT22;10754;51.106;7.164;2023-02-20T07:11:33;8.80;1.00
21193;DHT22;10754;51.106;7.164;2023-02-20T07:13:59;8.70;1.00
21193;DHT22;10754;51.106;7.164;2023-02-20T07:16:24;8.70;1.00
21193;DHT22;10754;51.106;7.164;2023-02-20T07:18:50;8.90;1.00
21193;DHT22;10754;51.106;7.164;2023-02-20T07:21:15;8.90;1.00
21193;DHT22;10754;51.106;7.164;2023-02-20T07:23:43;9.00;1.00
21193;DHT22;10754;51.106;7.164;2023-02-20T07:26:17;9.00;1.00
21193;DHT22;10754;51.106;7.164;2023-02-20T07:28:43;9.00;1.00
21193;DHT22;10754;51.106;7.164;2023-02-20T07:31:08;9.10;1.00
21193;DHT22;10754;51.106;7.164;2023-02-20T07:33:34;9.10;1.00
21193;DHT22;10754;51.106;7.164;2023-02-20T07:35:59;9.10;1.00
21193;DHT22;10754;51.106;7.164;2023-02-20T07:38:25;9.00;1.00
21193;DHT22;10754;51.106;7.164;2023-02-20T07:40:50;9.10;1.00
21193;DHT22;10754;51.106;7.164;2023-02-20T07:43:16;9.10;1.00
21193;DHT22;10754;51.106;7.164;2023-02-20T07:45:41;9.10;1.00
21193;DHT22;10754;51.106;7.164;2023-02-20T07:48:07;9.10;1.00
21193;DHT22;10754;51.106;7.164;2023-02-20T07:50:33;9.20;1.00
21193;DHT22;10754;51.106;7.164;2023-02-20T07:52:58;9.30;1.00
21193;DHT22;10754;51.106;7.164;2023-02-20T07:55:24;9.40;1.00
21193;DHT22;10754;51.106;7.164;2023-02-20T07:57:49;9.40;1.00
21193;DHT22;10754;51.106;7.164;2023-02-20T08:00:20;9.50;1.00
21193;DHT22;10754;51.106;7.164;2023-02-20T08:02:46;9.50;1.00
21193;DHT22;10754;51.106;7.164;2023-02-20T08:05:12;9.50;1.00
21193;DHT22;10754;51.106;7.164;2023-02-20T08:07:37;9.60;1.00
21193;DHT22;10754;51.106;7.164;2023-02-20T08:10:04;9.60;1.00
21193;DHT22;10754;51.106;7.164;2023-02-20T08:12:30;9.60;1.00
21193;DHT22;10754;51.106;7.164;2023-02-20T08:14:56;9.60;1.00
21193;DHT22;10754;51.106;7.164;2023-02-20T08:17:21;9.60;1.00
21193;DHT22;10754;51.106;7.164;2023-02-20T08:19:47;9.60;1.00
21193;DHT22;10754;51.106;7.164;2023-02-20T08:22:12;9.70;1.00
21193;DHT22;10754;51.106;7.164;2023-02-20T08:24:37;9.70;1.00
21193;DHT22;10754;51.106;7.164;2023-02-20T08:27:04;9.80;1.00
21193;DHT22;10754;51.106;7.164;2023-02-20T08:29:29;9.80;1.00
21193;DHT22;10754;51.106;7.164;2023-02-20T08:31:55;9.80;1.00
21193;DHT22;10754;51.106;7.164;2023-02-20T08:34:21;9.80;1.00
21193;DHT22;10754;51.106;7.164;2023-02-20T08:36:46;9.80;1.00
21193;DHT22;10754;51.106;7.164;2023-02-20T08:39:12;9.90;1.00
21193;DHT22;10754;51.106;7.164;2023-02-20T08:41:44;9.90;1.00
21193;DHT22;10754;51.106;7.164;2023-02-20T08:44:11;9.80;1.00
21193;DHT22;10754;51.106;7.164;2023-02-20T08:46:43;9.90;1.00
21193;DHT22;10754;51.106;7.164;2023-02-20T08:49:09;9.90;1.00
21193;DHT22;10754;51.106;7.164;2023-02-20T08:51:35;10.10;1.00
21193;DHT22;10754;51.106;7.164;2023-02-20T08:54:00;10.10;1.00
21193;DHT22;10754;51.106;7.164;2023-02-20T08:56:28;10.00;1.00
21193;DHT22;10754;51.106;7.164;2023-02-20T08:58:54;9.90;1.00
21193;DHT22;10754;51.106;7.164;2023-02-20T09:01:19;9.80;1.00
21193;DHT22;10754;51.106;7.164;2023-02-20T09:03:45;10.00;1.00
21193;DHT22;10754;51.106;7.164;2023-02-20T09:06:10;10.10;1.00
21193;DHT22;10754;51.106;7.164;2023-02-20T09:08:36;10.10;1.00
21193;DHT22;10754;51.106;7.164;2023-02-20T09:11:02;9.70;1.00
21193;DHT22;10754;51.106;7.164;2023-02-20T09:13:27;9.90;1.00
21193;DHT22;10754;51.106;7.164;2023-02-20T09:15:53;10.00;1.00
21193;DHT22;10754;51.106;7.164;2023-02-20T09:18:18;10.10;1.00
21193;DHT22;10754;51.106;7.164;2023-02-20T09:20:44;10.10;1.00
21193;DHT22;10754;51.106;7.164;2023-02-20T09:23:10;10.10;1.00
21193;DHT22;10754;51.106;7.164;2023-02-20T09:25:36;10.10;1.00
21193;DHT22;10754;51.106;7.164;2023-02-20T09:28:02;10.10;1.00
21193;DHT22;10754;51.106;7.164;2023-02-20T09:30:28;10.20;1.00
21193;DHT22;10754;51.106;7.164;2023-02-20T09:32:53;10.30;1.00
21193;DHT22;10754;51.106;7.164;2023-02-20T09:35:22;10.20;1.00
21193;DHT22;10754;51.106;7.164;2023-02-20T09:37:48;10.40;1.00
21193;DHT22;10754;51.106;7.164;2023-02-20T09:40:15;10.20;1.00
21193;DHT22;10754;51.106;7.164;2023-02-20T09:43:04;10.20;1.00
21193;DHT22;10754;51.106;7.164;2023-02-20T09:45:32;10.30;1.00
21193;DHT22;10754;51.106;7.164;2023-02-20T09:50:41;10.40;1.00
21193;DHT22;10754;51.106;7.164;2023-02-20T09:55:50;10.40;1.00
21193;DHT22;10754;51.106;7.164;2023-02-20T09:58:53;10.30;1.00
21193;DHT22;10754;51.106;7.164;2023-02-20T10:01:23;10.40;1.00
21193;DHT22;10754;51.106;7.164;2023-02-20T10:04:09;10.20;1.00
21193;DHT22;10754;51.106;7.164;2023-02-20T10:06:35;10.20;1.00
21193;DHT22;10754;51.106;7.164;2023-02-20T10:09:02;10.40;1.00
21193;DHT22;10754;51.106;7.164;2023-02-20T10:11:57;10.50;1.00
21193;DHT22;10754;51.106;7.164;2023-02-20T10:14:40;10.50;1.00
21193;DHT22;10754;51.106;7.164;2023-02-20T10:17:49;10.50;1.00
21193;DHT22;10754;51.106;7.164;2023-02-20T10:20:16;10.50;1.00
21193;DHT22;10754;51.106;7.164;2023-02-20T10:25:29;10.50;1.00
21193;DHT22;10754;51.106;7.164;2023-02-20T10:28:04;10.40;1.00
21193;DHT22;10754;51.106;7.164;2023-02-20T10:30:35;10.30;1.00
21193;DHT22;10754;51.106;7.164;2023-02-20T10:33:40;10.40;1.00
21193;DHT22;10754;51.106;7.164;2023-02-20T10:39:15;10.60;1.00
21193;DHT22;10754;51.106;7.164;2023-02-20T10:44:53;10.60;1.00
21193;DHT22;10754;51.106;7.164;2023-02-20T10:47:46;10.60;1.00
21193;DHT22;10754;51.106;7.164;2023-02-20T10:50:22;10.70;1.00
21193;DHT22;10754;51.106;7.164;2023-02-20T10:52:55;10.70;1.00
21193;DHT22;10754;51.106;7.164;2023-02-20T10:55:35;10.80;1.00
21193;DHT22;10754;51.106;7.164;2023-02-20T11:00:47;10.70;1.00
21193;DHT22;10754;51.106;7.164;2023-02-20T11:03:19;11.00;1.00
21193;DHT22;10754;51.106;7.164;2023-02-20T11:05:50;10.90;1.00
21193;DHT22;10754;51.106;7.164;2023-02-20T11:08:17;11.00;1.00
21193;DHT22;10754;51.106;7.164;2023-02-20T11:10:47;10.90;1.00
21193;DHT22;10754;51.106;7.164;2023-02-20T11:13:16;11.10;1.00
21193;DHT22;10754;51.106;7.164;2023-02-20T11:15:43;11.10;1.00
21193;DHT22;10754;51.106;7.164;2023-02-20T11:18:30;11.30;1.00
21193;DHT22;10754;51.106;7.164;2023-02-20T11:20:56;11.20;1.00
21193;DHT22;10754;51.106;7.164;2023-02-20T11:23:38;11.10;1.00
21193;DHT22;10754;51.106;7.164;2023-02-20T11:28:45;10.90;1.00
21193;DHT22;10754;51.106;7.164;2023-02-20T11:31:21;11.00;1.00
21193;DHT22;10754;51.106;7.164;2023-02-20T11:33:46;11.20;1.00
21193;DHT22;10754;51.106;7.164;2023-02-20T11:36:21;11.10;1.00
21193;DHT22;10754;51.106;7.164;2023-02-20T11:38:48;11.00;1.00
21193;DHT22;10754;51.106;7.164;2023-02-20T11:41:33;11.20;1.00
21193;DHT22;10754;51.106;7.164;2023-02-20T11:46:30;11.20;1.00
21193;DHT22;10754;51.106;7.164;2023-02-20T11:49:10;11.30;1.00
21193;DHT22;10754;51.106;7.164;2023-02-20T11:51:44;11.60;1.00
21193;DHT22;10754;51.106;7.164;2023-02-20T11:54:15;11.50;1.00
21193;DHT22;10754;51.106;7.164;2023-02-20T11:57:03;11.40;1.00
21193;DHT22;10754;51.106;7.164;2023-02-20T11:59:40;11.40;1.00
21193;DHT22;10754;51.106;7.164;2023-02-20T12:04:41;11.40;1.00
21193;DHT22;10754;51.106;7.164;2023-02-20T12:12:44;11.60;1.00
21193;DHT22;10754;51.106;7.164;2023-02-20T12:15:18;11.50;1.00
21193;DHT22;10754;51.106;7.164;2023-02-20T12:17:50;11.40;1.00
21193;DHT22;10754;51.106;7.164;2023-02-20T12:20:24;11.30;1.00
21193;DHT22;10754;51.106;7.164;2023-02-20T12:23:17;11.40;1.00
21193;DHT22;10754;51.106;7.164;2023-02-20T12:31:49;11.40;1.00
21193;DHT22;10754;51.106;7.164;2023-02-20T12:37:33;11.70;1.00
21193;DHT22;10754;51.106;7.164;2023-02-20T12:40:38;11.60;1.00
21193;DHT22;10754;51.106;7.164;2023-02-20T12:46:07;11.70;1.00
21193;DHT22;10754;51.106;7.164;2023-02-20T12:54:05;11.80;1.00
21193;DHT22;10754;51.106;7.164;2023-02-20T12:56:42;11.80;1.00
21193;DHT22;10754;51.106;7.164;2023-02-20T12:59:43;11.60;1.00
21193;DHT22;10754;51.106;7.164;2023-02-20T13:02:34;11.60;1.00
21193;DHT22;10754;51.106;7.164;2023-02-20T13:05:01;11.90;1.00
21193;DHT22;10754;51.106;7.164;2023-02-20T13:07:46;11.90;1.00
21193;DHT22;10754;51.106;7.164;2023-02-20T13:10:27;12.00;1.00
21193;DHT22;10754;51.106;7.164;2023-02-20T13:12:53;12.00;1.00
21193;DHT22;10754;51.106;7.164;2023-02-20T13:18:12;12.00;1.00
21193;DHT22;10754;51.106;7.164;2023-02-20T13:20:48;11.80;1.00
21193;DHT22;10754;51.106;7.164;2023-02-20T13:25:48;12.00;1.00
21193;DHT22;10754;51.106;7.164;2023-02-20T13:33:30;12.30;1.00
21193;DHT22;10754;51.106;7.164;2023-02-20T13:35:56;11.90;1.00
21193;DHT22;10754;51.106;7.164;2023-02-20T13:38:24;12.00;1.00
21193;DHT22;10754;51.106;7.164;2023-02-20T13:53:48;12.20;1.00
21193;DHT22;10754;51.106;7.164;2023-02-20T13:56:19;11.50;1.00
21193;DHT22;10754;51.106;7.164;2023-02-20T13:58:46;12.10;1.00
21193;DHT22;10754;51.106;7.164;2023-02-20T14:01:12;11.80;1.00
21193;DHT22;10754;51.106;7.164;2023-02-20T14:03:38;11.90;1.00
21193;DHT22;10754;51.106;7.164;2023-02-20T14:06:10;11.80;1.00
21193;DHT22;10754;51.106;7.164;2023-02-20T14:08:37;11.80;1.00
21193;DHT22;10754;51.106;7.164;2023-02-20T14:11:25;11.90;1.00
21193;DHT22;10754;51.106;7.164;2023-02-20T14:13:51;12.00;1.00
21193;DHT22;10754;51.106;7.164;2023-02-20T14:16:31;11.90;1.00
21193;DHT22;10754;51.106;7.164;2023-02-20T14:19:06;11.90;1.00
21193;DHT22;10754;51.106;7.164;2023-02-20T14:21:34;11.80;1.00
21193;DHT22;10754;51.106;7.164;2023-02-20T14:24:17;11.70;1.00
21193;DHT22;10754;51.106;7.164;2023-02-20T14:26:44;11.70;1.00
21193;DHT22;10754;51.106;7.164;2023-02-20T14:29:39;11.70;1.00
21193;DHT22;10754;51.106;7.164;2023-02-20T14:32:05;12.30;1.00
21193;DHT22;10754;51.106;7.164;2023-02-20T14:34:52;12.00;1.00
21193;DHT22;10754;51.106;7.164;2023-02-20T14:40:17;11.80;1.00
21193;DHT22;10754;51.106;7.164;2023-02-20T14:42:47;11.80;1.00
21193;DHT22;10754;51.106;7.164;2023-02-20T14:45:20;11.80;1.00
21193;DHT22;10754;51.106;7.164;2023-02-20T14:50:23;11.90;1.00
21193;DHT22;10754;51.106;7.164;2023-02-20T14:53:12;11.70;1.00
21193;DHT22;10754;51.106;7.164;2023-02-20T14:55:37;11.70;1.00
21193;DHT22;10754;51.106;7.164;2023-02-20T14:58:09;11.70;1.00
21193;DHT22;10754;51.106;7.164;2023-02-20T15:00:38;11.70;1.00
21193;DHT22;10754;51.106;7.164;2023-02-20T15:05:42;11.70;1.00
21193;DHT22;10754;51.106;7.164;2023-02-20T15:10:51;11.60;1.00
21193;DHT22;10754;51.106;7.164;2023-02-20T15:13:25;11.60;1.00
21193;DHT22;10754;51.106;7.164;2023-02-20T15:21:00;11.40;1.00
21193;DHT22;10754;51.106;7.164;2023-02-20T15:23:37;11.50;1.00
21193;DHT22;10754;51.106;7.164;2023-02-20T15:26:34;11.50;1.00
21193;DHT22;10754;51.106;7.164;2023-02-20T15:29:21;11.70;1.00
21193;DHT22;10754;51.106;7.164;2023-02-20T15:32:16;11.70;1.00
21193;DHT22;10754;51.106;7.164;2023-02-20T15:34:42;11.80;1.00
21193;DHT22;10754;51.106;7.164;2023-02-20T15:39:48;11.70;1.00
21193;DHT22;10754;51.106;7.164;2023-02-20T15:42:16;11.70;1.00
21193;DHT22;10754;51.106;7.164;2023-02-20T15:44:42;11.80;1.00
21193;DHT22;10754;51.106;7.164;2023-02-20T15:47:07;11.80;1.00
21193;DHT22;10754;51.106;7.164;2023-02-20T15:49:33;11.70;1.00
21193;DHT22;10754;51.106;7.164;2023-02-20T15:51:59;11.60;1.00
21193;DHT22;10754;51.106;7.164;2023-02-20T15:54:25;11.70;1.00
21193;DHT22;10754;51.106;7.164;2023-02-20T15:56:51;11.80;1.00
21193;DHT22;10754;51.106;7.164;2023-02-20T15:59:17;11.70;1.00
21193;DHT22;10754;51.106;7.164;2023-02-20T16:01:43;11.60;1.00
21193;DHT22;10754;51.106;7.164;2023-02-20T16:04:13;11.60;1.00
21193;DHT22;10754;51.106;7.164;2023-02-20T16:06:38;11.40;1.00
21193;DHT22;10754;51.106;7.164;2023-02-20T16:09:05;11.10;1.00
21193;DHT22;10754;51.106;7.164;2023-02-20T16:11:40;11.00;1.00
21193;DHT22;10754;51.106;7.164;2023-02-20T16:14:06;11.10;1.00
21193;DHT22;10754;51.106;7.164;2023-02-20T16:16:39;11.20;1.00
21193;DHT22;10754;51.106;7.164;2023-02-20T16:19:12;11.00;1.00
21193;DHT22;10754;51.106;7.164;2023-02-20T16:21:38;11.00;1.00
21193;DHT22;10754;51.106;7.164;2023-02-20T16:24:03;11.20;1.00
21193;DHT22;10754;51.106;7.164;2023-02-20T16:26:31;11.20;1.00
21193;DHT22;10754;51.106;7.164;2023-02-20T16:29:04;11.30;1.00
21193;DHT22;10754;51.106;7.164;2023-02-20T16:34:26;11.40;1.00
21193;DHT22;10754;51.106;7.164;2023-02-20T16:36:52;11.30;1.00
21193;DHT22;10754;51.106;7.164;2023-02-20T16:39:19;11.30;1.00
21193;DHT22;10754;51.106;7.164;2023-02-20T16:41:44;11.30;1.00
21193;DHT22;10754;51.106;7.164;2023-02-20T16:44:39;11.40;1.00
21193;DHT22;10754;51.106;7.164;2023-02-20T16:47:11;11.40;1.00
21193;DHT22;10754;51.106;7.164;2023-02-20T16:49:37;11.30;1.00
21193;DHT22;10754;51.106;7.164;2023-02-20T16:52:16;11.10;1.00
21193;DHT22;10754;51.106;7.164;2023-02-20T16:54:46;11.40;1.00
21193;DHT22;10754;51.106;7.164;2023-02-20T16:57:13;11.30;1.00
21193;DHT22;10754;51.106;7.164;2023-02-20T16:59:42;11.40;1.00
21193;DHT22;10754;51.106;7.164;2023-02-20T17:02:15;11.40;1.00
21193;DHT22;10754;51.106;7.164;2023-02-20T17:04:40;11.40;1.00
21193;DHT22;10754;51.106;7.164;2023-02-20T17:07:06;11.40;1.00
21193;DHT22;10754;51.106;7.164;2023-02-20T17:09:35;11.50;1.00
21193;DHT22;10754;51.106;7.164;2023-02-20T17:12:00;11.40;1.00
21193;DHT22;10754;51.106;7.164;2023-02-20T17:14:26;11.30;1.00
21193;DHT22;10754;51.106;7.164;2023-02-20T17:16:51;11.20;1.00
21193;DHT22;10754;51.106;7.164;2023-02-20T17:19:16;11.10;1.00
21193;DHT22;10754;51.106;7.164;2023-02-20T17:21:49;11.20;1.00
21193;DHT22;10754;51.106;7.164;2023-02-20T17:24:16;11.10;1.00
21193;DHT22;10754;51.106;7.164;2023-02-20T17:26:41;11.20;1.00
21193;DHT22;10754;51.106;7.164;2023-02-20T17:29:08;11.20;1.00
21193;DHT22;10754;51.106;7.164;2023-02-20T17:31:34;11.20;1.00
21193;DHT22;10754;51.106;7.164;2023-02-20T17:33:59;11.10;1.00
21193;DHT22;10754;51.106;7.164;2023-02-20T17:36:25;11.20;1.00
21193;DHT22;10754;51.106;7.164;2023-02-20T17:38:50;11.30;1.00
21193;DHT22;10754;51.106;7.164;2023-02-20T17:41:16;11.30;1.00
21193;DHT22;10754;51.106;7.164;2023-02-20T17:43:43;11.30;1.00
21193;DHT22;10754;51.106;7.164;2023-02-20T17:46:10;11.20;1.00
21193;DHT22;10754;51.106;7.164;2023-02-20T17:48:35;11.20;1.00
21193;DHT22;10754;51.106;7.164;2023-02-20T17:51:01;11.20;1.00
21193;DHT22;10754;51.106;7.164;2023-02-20T17:53:26;11.30;1.00
21193;DHT22;10754;51.106;7.164;2023-02-20T17:55:52;11.30;1.00
21193;DHT22;10754;51.106;7.164;2023-02-20T17:58:17;11.30;1.00
21193;DHT22;10754;51.106;7.164;2023-02-20T18:00:43;11.40;1.00
21193;DHT22;10754;51.106;7.164;2023-02-20T18:03:09;11.40;1.00